De Xin Hai — BQBP — position and weather

sailwx.info

Track history (hours):
 
Tides and Currents Weather Stations Pressure Air Temp Water Temp Dewpoint Dewpoint Depression Visibility Wind Speed Wind Dir Waves Ship Positions

De Xin Hai

Last reported at 2014-Nov-05 10:03 UTC. Time now 2014-Dec-19 18:15 UTC.
Position N 49°55' W 003°20'.
Warning: this ship's position is 44 days out of date.

Length 225 m; draft 6.9 m.

Type: Cargo ship. MMSI: 367344200.

Date/timePositionNaut miles runAvg speedWind from/ knotsBaromVisibWave heightAir tempDewpointWater temp
2014-Nov-05 10:03N 49°55' W 003°20'713.6
2014-Nov-05 09:33N 49°57' W 003°09'1312.7
2014-Nov-05 08:33N 49°60' W 002°50'16411.7
2014-Nov-04 18:31N 50°56' E 001°13'1313.3
2014-Nov-04 17:33N 51°04' E 001°28'1414.4
2014-Nov-04 16:34N 51°13' E 001°45'1313.3
2014-Nov-04 15:33N 51°25' E 001°55'1212.0
2014-Nov-04 14:34N 51°35' E 002°07'1111.0
2014-Nov-04 13:33N 51°43' E 002°19'16011.5
2014-Nov-03 23:33N 54°06' E 004°20'1312.4
2014-Nov-03 22:33N 54°17' E 004°31'28710.2
2014-Nov-02 18:33N 57°49' E 010°17'1111.3
2014-Nov-02 17:33N 57°49' E 010°38'9 9.1
2014-Nov-02 16:33N 57°42' E 010°48'4 4.0
2014-Nov-02 15:31N 57°40' E 010°41'0 0.0
2014-Nov-02 14:31N 57°40' E 010°41'0 0.0
2014-Nov-02 13:22N 57°40' E 010°41'0 0.0
2014-Nov-02 12:31N 57°40' E 010°41'0 0.1
2014-Nov-02 11:31N 57°40' E 010°41'0 0.0
2014-Nov-02 10:31N 57°40' E 010°41'0 0.0
2014-Nov-02 09:31N 57°40' E 010°41'0 0.0
2014-Nov-02 08:28N 57°40' E 010°41'0 0.0
2014-Nov-02 07:31N 57°40' E 010°41'0 0.0
2014-Nov-02 06:31N 57°40' E 010°41'0 0.3
2014-Nov-02 05:33N 57°41' E 010°41'8 8.1
2014-Nov-02 04:33N 57°37' E 010°55'1211.8
2014-Nov-02 03:33N 57°32' E 011°15'1111.6
2014-Nov-02 02:33N 57°23' E 011°29'1212.3
2014-Nov-02 01:33N 57°12' E 011°37'1212.0
2014-Nov-02 00:33N 57°00' E 011°44'1211.6
2014-Nov-01 23:33N 56°49' E 011°51'1110.8
2014-Nov-01 22:33N 56°39' E 011°47'1312.3
2014-Nov-01 21:31N 56°28' E 011°35'6311.5
2014-Nov-01 16:04N 55°30' E 010°54'612.5
2014-Nov-01 15:33N 55°24' E 010°60'1212.3
2014-Nov-01 14:33N 55°13' E 011°06'1211.7
2014-Nov-01 13:33N 55°01' E 010°60'1312.6
2014-Nov-01 12:33N 54°50' E 010°50'1110.7
2014-Nov-01 11:33N 54°39' E 010°51'1111.3
2014-Nov-01 10:33N 54°36' E 011°09'1212.5
2014-Nov-01 09:33N 54°31' E 011°29'1212.1
2014-Nov-01 08:33N 54°27' E 011°48'1212.1
2014-Nov-01 07:33N 54°27' E 012°09'9 9.2
2014-Nov-01 06:33N 54°35' E 012°16'1010.1
2014-Nov-01 05:33N 54°41' E 012°29'1111.2
2014-Nov-01 04:33N 54°47' E 012°46'1211.9
2014-Nov-01 03:33N 54°52' E 013°05'1212.3
2014-Nov-01 02:33N 54°56' E 013°25'1212.1
2014-Nov-01 01:33N 55°00' E 013°45'1312.1
2014-Nov-01 00:30N 55°05' E 014°05'1212.7
2014-Oct-31 23:33N 55°15' E 014°19'1312.8
2014-Oct-31 22:33N 55°25' E 014°33'1312.5
2014-Oct-31 21:33N 55°31' E 014°52'1212.4
2014-Oct-31 20:33N 55°36' E 015°12'  
Track history (hours):
 
Tides and Currents Weather Stations Pressure Air Temp Water Temp Dewpoint Dewpoint Depression Visibility Wind Speed Wind Dir Waves Ship Positions

De Xin Hai

Last reported at 2014-Nov-05 10:03 UTC. Time now 2014-Dec-19 18:15 UTC.
Position N 49°55' W 003°20'.
Warning: this ship's position is 44 days out of date.

Length 225 m; draft 6.9 m.

Type: Cargo ship. MMSI: 367344200.

Date/timePositionNaut miles runAvg speedWind from/ knotsBaromVisibWave heightAir tempDewpointWater temp
2014-Nov-05 10:03N 49°55' W 003°20'713.6
2014-Nov-05 09:33N 49°57' W 003°09'1312.7
2014-Nov-05 08:33N 49°60' W 002°50'16411.7
2014-Nov-04 18:31N 50°56' E 001°13'1313.3
2014-Nov-04 17:33N 51°04' E 001°28'1414.4
2014-Nov-04 16:34N 51°13' E 001°45'1313.3
2014-Nov-04 15:33N 51°25' E 001°55'1212.0
2014-Nov-04 14:34N 51°35' E 002°07'1111.0
2014-Nov-04 13:33N 51°43' E 002°19'16011.5
2014-Nov-03 23:33N 54°06' E 004°20'1312.4
2014-Nov-03 22:33N 54°17' E 004°31'28710.2
2014-Nov-02 18:33N 57°49' E 010°17'1111.3
2014-Nov-02 17:33N 57°49' E 010°38'9 9.1
2014-Nov-02 16:33N 57°42' E 010°48'4 4.0
2014-Nov-02 15:31N 57°40' E 010°41'0 0.0
2014-Nov-02 14:31N 57°40' E 010°41'0 0.0
2014-Nov-02 13:22N 57°40' E 010°41'0 0.0
2014-Nov-02 12:31N 57°40' E 010°41'0 0.1
2014-Nov-02 11:31N 57°40' E 010°41'0 0.0
2014-Nov-02 10:31N 57°40' E 010°41'0 0.0
2014-Nov-02 09:31N 57°40' E 010°41'0 0.0
2014-Nov-02 08:28N 57°40' E 010°41'0 0.0
2014-Nov-02 07:31N 57°40' E 010°41'0 0.0
2014-Nov-02 06:31N 57°40' E 010°41'0 0.3
2014-Nov-02 05:33N 57°41' E 010°41'8 8.1
2014-Nov-02 04:33N 57°37' E 010°55'1211.8
2014-Nov-02 03:33N 57°32' E 011°15'1111.6
2014-Nov-02 02:33N 57°23' E 011°29'1212.3
2014-Nov-02 01:33N 57°12' E 011°37'1212.0
2014-Nov-02 00:33N 57°00' E 011°44'1211.6
2014-Nov-01 23:33N 56°49' E 011°51'1110.8
2014-Nov-01 22:33N 56°39' E 011°47'1312.3
2014-Nov-01 21:31N 56°28' E 011°35'6311.5
2014-Nov-01 16:04N 55°30' E 010°54'612.5
2014-Nov-01 15:33N 55°24' E 010°60'1212.3
2014-Nov-01 14:33N 55°13' E 011°06'1211.7
2014-Nov-01 13:33N 55°01' E 010°60'1312.6
2014-Nov-01 12:33N 54°50' E 010°50'1110.7
2014-Nov-01 11:33N 54°39' E 010°51'1111.3
2014-Nov-01 10:33N 54°36' E 011°09'1212.5
2014-Nov-01 09:33N 54°31' E 011°29'1212.1
2014-Nov-01 08:33N 54°27' E 011°48'1212.1
2014-Nov-01 07:33N 54°27' E 012°09'9 9.2
2014-Nov-01 06:33N 54°35' E 012°16'1010.1
2014-Nov-01 05:33N 54°41' E 012°29'1111.2
2014-Nov-01 04:33N 54°47' E 012°46'1211.9
2014-Nov-01 03:33N 54°52' E 013°05'1212.3
2014-Nov-01 02:33N 54°56' E 013°25'1212.1
2014-Nov-01 01:33N 55°00' E 013°45'1312.1
2014-Nov-01 00:30N 55°05' E 014°05'1212.7
2014-Oct-31 23:33N 55°15' E 014°19'1312.8
2014-Oct-31 22:33N 55°25' E 014°33'1312.5
2014-Oct-31 21:33N 55°31' E 014°52'1212.4
2014-Oct-31 20:33N 55°36' E 015°12'  

Dump ship's entire track history